Aérodrome :







RETROUVEZ-NOUS SUR...

 
LOGIN :

S'inscrire | Disclaimer

   EN    FR    IT 

 









Légende :    VFR   VFR Marginal   IFR   IFR Intensif   IFR Très Intensif
Visi : 
Plafond : 
>= 8 km
>= 3000ft
5 à 8 km
1000 à 3000 ft
1500m à 5 km
500 à 1000 ft
800 à 1500m
200 à 500 ft
< 800m
< 200 ft
Symboles :   Orages  Brouillard  Fortes neiges  Fortes précipitations  Vent > 20 kt






- Altitude de l'aérodrome : 141 ft
- Code IATA : YQI


CYQI - Yarmouth

DERNIER METAR :
  • 210251Z 33013G19KT 15SM BKN051 M06/M15 A3034 RMK SC7 SLP278

METARs EXPIRÉS :
  • 210200Z 34011G21KT 12SM -SHSN BKN043 BKN063 M06/M12 A3033 RMK SC6SC1 SLP275
  • 210100Z CCA 31015G22KT 12SM -SHSN BKN048 M06/M14 A3032 RMK SC7 SLP270
  • 210000Z 31015G20KT 12SM -SHSN BKN042 M06/M15 A3031 RMK SC7 CVCTV CLD EMBD SLP267

TAF TAF CYQI
Valide du 21 à 00h jusqu'au 21 à 12h UTC


202338Z 2100/2112 31015G25KT P6SM BKN040
TEMPO 2100/2109 4SM -SHSN BKN020
BECMG 2104/2106 34012G22KT
FM210900 36008KT P6SM BKN030
TEMPO 2109/2112 BKN020 RMK NXT FCST BY 210600Z



MET'MAP, la Météo Aéronautique d'un coup d'oeil ! - Copyright ORBIFLY Décembre 2007 - Disclaimer

ORBIFLY MET'MAP TEAM :

Programmation & Développement : Alexandra Zaïnal
Sur une idée originale de : Baudouin d'Aumeries
Assistance à la programmation : Marc-Olivier Méhu
Soutien technique & logistique : Manuel Goepfert

Contact : metmap@orbifly.com




SOURCES & CREDITS :

   NOAA